createdAt,value
2017-08-20T00:00:05.176Z,17.73
2017-08-20T00:00:33.690Z,17.69
2017-08-20T00:01:01.760Z,17.76
2017-08-20T00:01:29.902Z,17.87
2017-08-20T00:01:57.768Z,17.72
2017-08-20T00:02:26.249Z,17.76
2017-08-20T00:02:54.461Z,17.76
2017-08-20T00:03:22.492Z,17.76
2017-08-20T00:03:50.643Z,17.76
2017-08-20T00:04:18.783Z,17.87
2017-08-20T00:04:46.662Z,17.87
2017-08-20T00:05:14.692Z,17.78
2017-08-20T00:05:43.000Z,17.73
2017-08-20T00:06:11.197Z,17.71
2017-08-20T00:06:39.148Z,17.78
2017-08-20T00:07:07.330Z,17.76
2017-08-20T00:07:35.428Z,17.68
2017-08-20T00:08:03.477Z,17.76
2017-08-20T00:08:31.638Z,17.71
2017-08-20T00:08:59.691Z,17.69
2017-08-20T00:09:27.742Z,17.69
2017-08-20T00:09:55.791Z,17.69
2017-08-20T00:10:24.035Z,17.6
2017-08-20T00:10:52.064Z,17.63
2017-08-20T00:11:20.265Z,17.6
2017-08-20T00:11:48.290Z,17.59
2017-08-20T00:12:16.438Z,17.56
2017-08-20T00:12:44.468Z,17.57
2017-08-20T00:13:12.768Z,17.59
2017-08-20T00:13:40.976Z,17.66
2017-08-20T00:14:09.232Z,17.57
2017-08-20T00:14:37.371Z,17.56
2017-08-20T00:15:05.328Z,17.65
2017-08-20T00:15:33.358Z,17.63
2017-08-20T00:16:01.453Z,17.65
2017-08-20T00:16:29.400Z,17.73
2017-08-20T00:16:57.571Z,17.69
2017-08-20T00:17:25.611Z,17.72
2017-08-20T00:17:53.647Z,17.72
2017-08-20T00:18:21.698Z,17.73
2017-08-20T00:18:49.745Z,17.71
2017-08-20T00:19:17.768Z,17.76
2017-08-20T00:19:45.863Z,17.71
2017-08-20T00:20:13.910Z,17.66
2017-08-20T00:20:41.943Z,17.72
2017-08-20T00:21:10.008Z,17.75
2017-08-20T00:21:37.966Z,17.73
2017-08-20T00:22:05.897Z,17.66
2017-08-20T00:22:33.933Z,17.66
2017-08-20T00:23:01.910Z,17.63
2017-08-20T00:23:30.004Z,17.63
2017-08-20T00:23:58.137Z,17.59
2017-08-20T00:24:26.147Z,17.68
2017-08-20T00:24:54.304Z,17.63
2017-08-20T00:25:23.087Z,17.56
2017-08-20T00:25:51.124Z,17.56
2017-08-20T00:26:19.058Z,17.59
2017-08-20T00:26:47.122Z,17.6
2017-08-20T00:27:15.164Z,17.59
2017-08-20T00:27:43.197Z,17.59
2017-08-20T00:28:11.325Z,17.69
2017-08-20T00:28:39.345Z,17.54
2017-08-20T00:29:07.786Z,17.54
2017-08-20T00:29:35.796Z,17.59
2017-08-20T00:30:03.921Z,17.6
2017-08-20T00:30:31.887Z,17.6
2017-08-20T00:30:59.824Z,17.63
2017-08-20T00:31:27.906Z,17.63
2017-08-20T00:31:55.966Z,17.59
2017-08-20T00:32:24.020Z,17.59
2017-08-20T00:32:51.993Z,17.57
2017-08-20T00:33:20.033Z,17.54
2017-08-20T00:33:48.228Z,17.63
2017-08-20T00:34:16.252Z,17.6
2017-08-20T00:34:44.400Z,17.59
2017-08-20T00:35:12.504Z,17.59
2017-08-20T00:35:40.819Z,17.59
2017-08-20T00:36:08.986Z,17.59
2017-08-20T00:36:37.035Z,17.63
2017-08-20T00:37:05.234Z,17.59
2017-08-20T00:37:33.275Z,17.54
2017-08-20T00:38:01.223Z,17.57
2017-08-20T00:38:29.423Z,17.6
2017-08-20T00:38:57.597Z,17.54
2017-08-20T00:39:25.756Z,17.56
2017-08-20T00:39:54.085Z,17.56
2017-08-20T00:40:22.224Z,17.56
2017-08-20T00:40:50.456Z,17.53
2017-08-20T00:41:18.638Z,17.54
2017-08-20T00:41:46.677Z,17.6
2017-08-20T00:42:15.058Z,17.57
2017-08-20T00:42:43.220Z,17.57
2017-08-20T00:43:11.150Z,17.57
2017-08-20T00:43:39.065Z,17.57
2017-08-20T00:44:07.996Z,17.53
2017-08-20T00:44:37.105Z,17.57
2017-08-20T00:45:05.268Z,17.59
2017-08-20T00:45:33.622Z,17.59
2017-08-20T00:46:01.936Z,17.68
2017-08-20T00:46:30.055Z,17.6
2017-08-20T00:46:58.047Z,17.56
2017-08-20T00:47:27.327Z,17.57
2017-08-20T00:47:55.501Z,17.59
2017-08-20T00:48:23.883Z,17.56
2017-08-20T00:48:51.916Z,17.54
2017-08-20T00:49:20.072Z,17.54
2017-08-20T00:49:48.108Z,17.57
2017-08-20T00:51:00.604Z,17.59
2017-08-20T00:51:31.976Z,17.57
2017-08-20T00:52:15.629Z,17.63
2017-08-20T00:52:44.539Z,17.57
2017-08-20T00:53:15.632Z,17.54
2017-08-20T00:53:44.990Z,17.57
2017-08-20T00:54:28.161Z,17.66
2017-08-20T00:56:41.675Z,17.53
2017-08-20T00:57:31.574Z,17.59
2017-08-20T00:58:02.710Z,17.6
2017-08-20T00:58:31.871Z,17.69
2017-08-20T00:59:16.022Z,17.63
2017-08-20T00:59:44.985Z,17.56
2017-08-20T01:00:58.851Z,17.68
2017-08-20T01:01:31.165Z,17.59
2017-08-20T01:02:00.841Z,17.59
2017-08-20T01:02:29.328Z,17.59
2017-08-20T01:03:00.977Z,17.63
2017-08-20T01:03:59.286Z,17.65
2017-08-20T01:04:29.147Z,17.65
2017-08-20T01:04:58.982Z,17.63
2017-08-20T01:05:43.053Z,17.65
2017-08-20T01:06:13.518Z,17.59
2017-08-20T01:06:43.863Z,17.6
2017-08-20T01:07:12.155Z,17.63
2017-08-20T01:08:53.303Z,17.56
2017-08-20T01:09:24.404Z,17.59
2017-08-20T01:11:20.001Z,17.59
2017-08-20T01:11:50.016Z,17.6
2017-08-20T01:12:35.122Z,17.59
2017-08-20T01:13:04.575Z,17.65
2017-08-20T01:13:34.277Z,17.63
2017-08-20T01:14:18.039Z,17.57
2017-08-20T01:14:49.204Z,17.65
2017-08-20T01:15:18.010Z,17.63
2017-08-20T01:16:16.322Z,17.52
2017-08-20T01:17:00.302Z,17.6
2017-08-20T01:19:11.700Z,17.53
2017-08-20T01:19:39.828Z,17.6
2017-08-20T01:20:07.855Z,17.57
2017-08-20T01:20:35.904Z,17.57
2017-08-20T01:21:04.060Z,17.57
2017-08-20T01:21:32.276Z,17.56
2017-08-20T01:22:01.037Z,17.52
2017-08-20T01:22:30.036Z,17.56
2017-08-20T01:22:58.425Z,17.59
2017-08-20T01:23:42.016Z,17.59
2017-08-20T01:24:10.098Z,17.59
2017-08-20T01:24:38.214Z,17.59
2017-08-20T01:25:06.246Z,17.6
2017-08-20T01:25:34.280Z,17.59
2017-08-20T01:26:02.315Z,17.6
2017-08-20T01:26:30.453Z,17.59
2017-08-20T01:26:58.618Z,17.63
2017-08-20T01:27:26.687Z,17.59
2017-08-20T01:27:55.079Z,17.54
2017-08-20T01:28:23.168Z,17.54
2017-08-20T01:28:51.246Z,17.54
2017-08-20T01:29:19.266Z,17.39
2017-08-20T01:29:47.371Z,17.49
2017-08-20T01:30:15.594Z,17.49
2017-08-20T01:30:43.774Z,17.44
2017-08-20T01:31:11.921Z,17.47
2017-08-20T01:31:39.969Z,17.47
2017-08-20T01:32:08.163Z,17.47
2017-08-20T01:32:36.291Z,17.53
2017-08-20T01:33:04.219Z,17.44
2017-08-20T01:33:32.184Z,17.46
2017-08-20T01:34:00.212Z,17.47
2017-08-20T01:34:28.797Z,17.47
2017-08-20T01:34:56.734Z,17.44
2017-08-20T01:35:24.800Z,17.44
2017-08-20T01:35:53.252Z,17.44
2017-08-20T01:36:21.354Z,17.44
2017-08-20T01:36:49.389Z,17.44
2017-08-20T01:37:17.631Z,17.44
2017-08-20T01:37:45.762Z,17.42
2017-08-20T01:38:13.930Z,17.44
2017-08-20T01:38:42.209Z,17.41
2017-08-20T01:39:10.633Z,17.44
2017-08-20T01:39:38.772Z,17.47
2017-08-20T01:40:06.709Z,17.42
2017-08-20T01:40:34.779Z,17.49
2017-08-20T01:41:03.359Z,17.46
2017-08-20T01:41:31.620Z,17.44
2017-08-20T01:41:59.662Z,17.5
2017-08-20T01:42:27.943Z,17.39
2017-08-20T01:42:56.554Z,17.41
2017-08-20T01:43:24.670Z,17.46
2017-08-20T01:43:53.092Z,17.42
2017-08-20T01:44:21.208Z,17.42
2017-08-20T01:44:49.214Z,17.42
2017-08-20T01:45:17.416Z,17.37
2017-08-20T01:45:45.802Z,17.39
2017-08-20T01:46:13.996Z,17.5
2017-08-20T01:46:42.110Z,17.35
2017-08-20T01:47:10.053Z,17.41
2017-08-20T01:47:38.085Z,17.38
2017-08-20T01:48:06.081Z,17.37
2017-08-20T01:48:34.231Z,17.46
2017-08-20T01:49:02.575Z,17.39
2017-08-20T01:49:30.580Z,17.44
2017-08-20T01:49:58.631Z,17.42
2017-08-20T01:50:26.678Z,17.35
2017-08-20T01:50:54.831Z,17.39
2017-08-20T01:51:22.940Z,17.37
2017-08-20T01:51:50.984Z,17.35
2017-08-20T01:52:19.429Z,17.37
2017-08-20T01:52:47.365Z,17.34
2017-08-20T01:53:15.480Z,17.41
2017-08-20T01:53:43.678Z,17.38
2017-08-20T01:54:11.676Z,17.34
2017-08-20T01:54:39.944Z,17.39
2017-08-20T01:55:07.992Z,17.37
2017-08-20T01:55:36.050Z,17.39
2017-08-20T01:56:04.174Z,17.37
2017-08-20T01:56:32.325Z,17.5
2017-08-20T01:57:00.302Z,17.41
2017-08-20T01:57:28.925Z,17.32
2017-08-20T01:57:56.869Z,17.37
2017-08-20T01:58:24.994Z,17.38
2017-08-20T01:58:53.398Z,17.41
2017-08-20T01:59:21.544Z,17.39
2017-08-20T01:59:49.631Z,17.44
2017-08-20T02:00:18.079Z,17.44
2017-08-20T02:00:46.266Z,17.44
2017-08-20T02:01:14.829Z,17.5
2017-08-20T02:01:42.987Z,17.47
2017-08-20T02:02:11.041Z,17.42
2017-08-20T02:02:39.113Z,17.46
2017-08-20T02:03:07.169Z,17.42
2017-08-20T02:03:35.168Z,17.56
2017-08-20T02:04:03.464Z,17.46
2017-08-20T02:04:31.732Z,17.54
2017-08-20T02:05:00.000Z,17.54
2017-08-20T02:05:28.004Z,17.54
2017-08-20T02:05:56.144Z,17.56
2017-08-20T02:06:24.386Z,17.5
2017-08-20T02:06:52.543Z,17.57
2017-08-20T02:07:20.584Z,17.49
2017-08-20T02:07:48.544Z,17.46
2017-08-20T02:08:16.592Z,17.6
2017-08-20T02:08:44.716Z,17.59
2017-08-20T02:09:12.748Z,17.59
2017-08-20T02:09:40.962Z,17.57
2017-08-20T02:10:09.017Z,17.41
2017-08-20T02:10:37.175Z,17.47
2017-08-20T02:11:05.322Z,17.39
2017-08-20T02:11:33.557Z,17.47
2017-08-20T02:12:01.693Z,17.46
2017-08-20T02:12:29.860Z,17.47
2017-08-20T02:12:58.217Z,17.5
2017-08-20T02:13:26.260Z,17.5
2017-08-20T02:13:54.574Z,17.46
2017-08-20T02:14:22.726Z,17.42
2017-08-20T02:14:50.891Z,17.42
2017-08-20T02:15:18.800Z,17.38
2017-08-20T02:15:46.973Z,17.35
2017-08-20T02:16:15.132Z,17.41
2017-08-20T02:16:43.172Z,17.41
2017-08-20T02:17:11.334Z,17.42
2017-08-20T02:17:39.367Z,17.47
2017-08-20T02:18:07.587Z,17.42
2017-08-20T02:18:35.569Z,17.42
2017-08-20T02:19:03.722Z,17.38
2017-08-20T02:19:31.765Z,17.39
2017-08-20T02:19:59.926Z,17.35
2017-08-20T02:20:28.038Z,17.35
2017-08-20T02:20:56.068Z,17.38
2017-08-20T02:21:24.191Z,17.37
2017-08-20T02:21:52.235Z,17.41
2017-08-20T02:22:20.285Z,17.38
2017-08-20T02:22:48.247Z,17.38
2017-08-20T02:23:16.390Z,17.3
2017-08-20T02:23:44.529Z,17.35
2017-08-20T02:24:12.594Z,17.38
2017-08-20T02:24:40.864Z,17.38
2017-08-20T02:25:08.909Z,17.37
2017-08-20T02:25:36.941Z,17.31
2017-08-20T02:26:05.054Z,17.23
2017-08-20T02:26:33.190Z,17.28
2017-08-20T02:27:01.243Z,17.27
2017-08-20T02:27:29.416Z,17.23
2017-08-20T02:27:57.465Z,17.24
2017-08-20T02:28:25.404Z,17.27
2017-08-20T02:28:53.482Z,17.24
2017-08-20T02:29:21.344Z,17.22
2017-08-20T02:29:49.391Z,17.17
2017-08-20T02:30:17.601Z,17.17
2017-08-20T02:30:45.732Z,17.22
2017-08-20T02:31:13.796Z,17.19
2017-08-20T02:31:41.863Z,17.19
2017-08-20T02:32:09.987Z,17.19
2017-08-20T02:32:38.108Z,17.1
2017-08-20T02:33:06.040Z,17.17
2017-08-20T02:33:34.166Z,17.13
2017-08-20T02:34:02.288Z,17.16
2017-08-20T02:34:30.434Z,17.13
2017-08-20T02:34:58.571Z,17.16
2017-08-20T02:35:26.528Z,17.17
2017-08-20T02:35:54.680Z,17.13
2017-08-20T02:36:22.827Z,17.16
2017-08-20T02:36:51.001Z,17.09
2017-08-20T02:37:18.959Z,17.19
2017-08-20T02:37:47.008Z,17.19
2017-08-20T02:38:15.022Z,17.17
2017-08-20T02:38:43.131Z,17.17
2017-08-20T02:39:11.393Z,17.14
2017-08-20T02:39:39.356Z,17.14
2017-08-20T02:40:07.591Z,17.1
2017-08-20T02:40:35.629Z,17.17
2017-08-20T02:41:03.913Z,17.14
2017-08-20T02:41:31.968Z,17.13
2017-08-20T02:41:59.942Z,17.16
2017-08-20T02:42:28.083Z,17.17
2017-08-20T02:42:56.203Z,17.22
2017-08-20T02:43:24.363Z,17.1
2017-08-20T02:43:52.412Z,17.16
2017-08-20T02:44:20.517Z,17.17
2017-08-20T02:44:48.471Z,17.17
2017-08-20T02:45:16.633Z,17.19
2017-08-20T02:45:44.763Z,17.22
2017-08-20T02:46:12.868Z,17.19
2017-08-20T02:46:40.794Z,17.17
2017-08-20T02:47:08.896Z,17.14
2017-08-20T02:47:36.843Z,17.17
2017-08-20T02:48:05.120Z,17.16
2017-08-20T02:48:33.368Z,17.17
2017-08-20T02:49:01.430Z,17.17
2017-08-20T02:49:29.577Z,17.17
2017-08-20T02:49:57.606Z,17.22
2017-08-20T02:50:25.737Z,17.16
2017-08-20T02:50:54.044Z,17.13
2017-08-20T02:51:22.285Z,17.16
2017-08-20T02:51:50.307Z,17.16
2017-08-20T02:52:18.433Z,17.13
2017-08-20T02:52:46.881Z,17.17
2017-08-20T02:53:15.099Z,17.17
2017-08-20T02:53:43.112Z,17.17
2017-08-20T02:54:11.243Z,17.12
2017-08-20T02:54:39.207Z,17.1
2017-08-20T02:55:07.580Z,17.13
2017-08-20T02:55:35.727Z,17.14
2017-08-20T02:56:03.798Z,17.14
2017-08-20T02:56:31.975Z,17.13
2017-08-20T02:57:00.090Z,17.14
2017-08-20T02:57:28.254Z,17.19
2017-08-20T02:57:56.301Z,17.16
2017-08-20T02:58:24.514Z,17.17
2017-08-20T02:58:52.566Z,17.16
2017-08-20T02:59:20.628Z,17.2
2017-08-20T02:59:48.722Z,17.13
2017-08-20T03:00:16.890Z,17.2
2017-08-20T03:00:44.997Z,17.16
2017-08-20T03:01:13.016Z,17.19
2017-08-20T03:01:41.053Z,17.1
2017-08-20T03:02:09.501Z,17.16
2017-08-20T03:02:37.658Z,17.12
2017-08-20T03:03:06.170Z,17.17
2017-08-20T03:03:34.402Z,17.16
2017-08-20T03:04:02.715Z,17.17
2017-08-20T03:04:31.465Z,17.16
2017-08-20T03:04:59.913Z,17.16
2017-08-20T03:05:28.439Z,17.13
2017-08-20T03:05:56.931Z,17.12
2017-08-20T03:06:25.482Z,17.16
2017-08-20T03:06:54.011Z,17.14
2017-08-20T03:07:22.122Z,17.09
2017-08-20T03:07:50.747Z,17.19
2017-08-20T03:08:18.836Z,17.16
2017-08-20T03:08:46.801Z,17.07
2017-08-20T03:09:14.817Z,17.16
2017-08-20T03:09:42.968Z,17.13
2017-08-20T03:10:11.102Z,17.09
2017-08-20T03:10:39.254Z,17.13
2017-08-20T03:11:07.401Z,17.13
2017-08-20T03:11:35.456Z,17.12
2017-08-20T03:12:03.674Z,17.09
2017-08-20T03:12:32.263Z,17.1
2017-08-20T03:13:00.473Z,17.14
2017-08-20T03:13:28.704Z,17.14
2017-08-20T03:13:56.825Z,17.14
2017-08-20T03:14:24.971Z,17.14
2017-08-20T03:14:53.278Z,17.13
2017-08-20T03:15:21.447Z,17.12
2017-08-20T03:15:49.721Z,17.14
2017-08-20T03:16:17.980Z,17.14
2017-08-20T03:16:46.580Z,17.14
2017-08-20T03:17:14.813Z,17.2
2017-08-20T03:17:42.981Z,17.14
2017-08-20T03:18:11.857Z,17.19
2017-08-20T03:18:40.234Z,17.16
2017-08-20T03:19:08.379Z,17.17
2017-08-20T03:19:36.498Z,17.17
2017-08-20T03:20:04.529Z,17.13
2017-08-20T03:20:32.571Z,17.19
2017-08-20T03:21:00.862Z,17.22
2017-08-20T03:21:28.839Z,17.2
2017-08-20T03:21:57.258Z,17.19
2017-08-20T03:22:25.684Z,17.19
2017-08-20T03:22:54.073Z,17.23
2017-08-20T03:23:22.467Z,17.2
2017-08-20T03:23:50.695Z,17.28
2017-08-20T03:24:18.823Z,17.3
2017-08-20T03:24:46.933Z,17.22
2017-08-20T03:25:15.104Z,17.28
2017-08-20T03:25:43.038Z,17.27
2017-08-20T03:26:11.088Z,17.28
2017-08-20T03:26:39.310Z,17.27
2017-08-20T03:27:07.458Z,17.2
2017-08-20T03:27:35.550Z,17.24
2017-08-20T03:28:03.734Z,17.22
2017-08-20T03:28:31.936Z,17.23
2017-08-20T03:28:59.985Z,17.27
2017-08-20T03:29:28.037Z,17.19
2017-08-20T03:29:56.149Z,17.2
2017-08-20T03:30:24.265Z,17.24
2017-08-20T03:30:52.293Z,17.23
2017-08-20T03:31:20.464Z,17.28
2017-08-20T03:31:49.095Z,17.24
2017-08-20T03:32:17.466Z,17.2
2017-08-20T03:32:45.842Z,17.23
2017-08-20T03:33:13.997Z,17.32
2017-08-20T03:33:42.499Z,17.27
2017-08-20T03:34:10.988Z,17.24
2017-08-20T03:34:39.505Z,17.27
2017-08-20T03:35:07.866Z,17.24
2017-08-20T03:35:36.172Z,17.3
2017-08-20T03:36:04.615Z,17.3
2017-08-20T03:36:32.723Z,17.19
2017-08-20T03:37:00.774Z,17.22
2017-08-20T03:37:29.321Z,17.27
2017-08-20T03:37:57.459Z,17.19
2017-08-20T03:38:25.602Z,17.23
2017-08-20T03:38:53.972Z,17.27
2017-08-20T03:39:22.083Z,17.22
2017-08-20T03:39:50.159Z,17.2
2017-08-20T03:40:18.308Z,17.27
2017-08-20T03:40:46.466Z,17.24
2017-08-20T03:41:14.772Z,17.27
2017-08-20T03:41:42.932Z,17.24
2017-08-20T03:42:11.028Z,17.23
2017-08-20T03:42:38.883Z,17.22
2017-08-20T03:43:07.304Z,17.24
2017-08-20T03:43:35.475Z,17.24
2017-08-20T03:44:03.686Z,17.23
2017-08-20T03:44:31.910Z,17.34
2017-08-20T03:44:59.948Z,17.27
2017-08-20T03:45:28.080Z,17.27
2017-08-20T03:45:56.268Z,17.28
2017-08-20T03:46:24.356Z,17.23
2017-08-20T03:46:52.510Z,17.2
2017-08-20T03:47:20.629Z,17.27
2017-08-20T03:47:48.698Z,17.23
2017-08-20T03:48:16.707Z,17.23
2017-08-20T03:48:44.639Z,17.24
2017-08-20T03:49:12.579Z,17.28
2017-08-20T03:49:40.490Z,17.27
2017-08-20T03:50:08.592Z,17.23
2017-08-20T03:50:36.806Z,17.3
2017-08-20T03:51:04.820Z,17.35
2017-08-20T03:51:32.958Z,17.34
2017-08-20T03:52:01.119Z,17.3
2017-08-20T03:52:29.517Z,17.24
2017-08-20T03:52:57.734Z,17.24
2017-08-20T03:53:40.360Z,17.32
2017-08-20T03:54:08.657Z,17.32
2017-08-20T03:54:36.664Z,17.35
2017-08-20T03:55:04.769Z,17.3
2017-08-20T03:55:33.028Z,17.3
2017-08-20T03:56:01.399Z,17.32
2017-08-20T03:56:29.498Z,17.27
2017-08-20T03:56:57.551Z,17.24
2017-08-20T03:57:25.700Z,17.32
2017-08-20T03:57:54.099Z,17.32
2017-08-20T03:58:22.273Z,17.34
2017-08-20T03:58:50.225Z,17.32
2017-08-20T03:59:18.309Z,17.35
2017-08-20T03:59:46.251Z,17.24
2017-08-20T04:00:14.463Z,17.24
2017-08-20T04:00:42.592Z,17.3
2017-08-20T04:01:10.974Z,17.23
2017-08-20T04:01:39.008Z,17.23
2017-08-20T04:02:07.145Z,17.27
2017-08-20T04:02:35.195Z,17.31
2017-08-20T04:03:03.270Z,17.27
2017-08-20T04:03:31.352Z,17.28
2017-08-20T04:03:59.578Z,17.27
2017-08-20T04:04:27.983Z,17.24
2017-08-20T04:04:56.109Z,17.24
2017-08-20T04:05:24.151Z,17.24
2017-08-20T04:05:52.186Z,17.28
2017-08-20T04:06:20.310Z,17.23
2017-08-20T04:06:48.467Z,17.27
2017-08-20T04:07:16.685Z,17.24
2017-08-20T04:07:44.831Z,17.23
2017-08-20T04:08:13.012Z,17.24
2017-08-20T04:08:41.029Z,17.27
2017-08-20T04:09:09.125Z,17.24
2017-08-20T04:09:37.243Z,17.27
2017-08-20T04:10:05.381Z,17.2
2017-08-20T04:10:33.436Z,17.28
2017-08-20T04:11:01.570Z,17.24
2017-08-20T04:11:29.589Z,17.31
2017-08-20T04:11:57.628Z,17.34
2017-08-20T04:12:25.672Z,17.27
2017-08-20T04:12:53.706Z,17.31
2017-08-20T04:13:21.756Z,17.28
2017-08-20T04:13:49.902Z,17.3
2017-08-20T04:14:17.930Z,17.3
2017-08-20T04:14:45.954Z,17.3
2017-08-20T04:15:14.084Z,17.34
2017-08-20T04:15:42.326Z,17.34
2017-08-20T04:16:10.315Z,17.28
2017-08-20T04:16:38.498Z,17.34
2017-08-20T04:17:06.627Z,17.3
2017-08-20T04:17:34.726Z,17.27
2017-08-20T04:18:02.763Z,17.37
2017-08-20T04:18:30.791Z,17.28
2017-08-20T04:18:58.831Z,17.28
2017-08-20T04:19:26.969Z,17.37
2017-08-20T04:19:55.003Z,17.3
2017-08-20T04:20:22.938Z,17.37
2017-08-20T04:20:50.989Z,17.34
2017-08-20T04:21:19.122Z,17.37
2017-08-20T04:21:47.129Z,17.34
2017-08-20T04:22:15.250Z,17.35
2017-08-20T04:22:43.275Z,17.32
2017-08-20T04:23:11.385Z,17.35
2017-08-20T04:23:39.409Z,17.31
2017-08-20T04:24:07.542Z,17.23
2017-08-20T04:24:35.652Z,17.24
2017-08-20T04:25:03.780Z,17.24
2017-08-20T04:25:31.822Z,17.27
2017-08-20T04:26:00.028Z,17.2
2017-08-20T04:26:28.072Z,17.27
2017-08-20T04:26:55.998Z,17.28
2017-08-20T04:27:24.119Z,17.24
2017-08-20T04:27:52.125Z,17.34
2017-08-20T04:28:20.176Z,17.35
2017-08-20T04:28:48.216Z,17.3
2017-08-20T04:29:16.340Z,17.3
2017-08-20T04:29:44.462Z,17.28
2017-08-20T04:30:12.473Z,17.22
2017-08-20T04:30:40.602Z,17.23
2017-08-20T04:31:08.522Z,17.31
2017-08-20T04:31:36.588Z,17.28
2017-08-20T04:32:04.773Z,17.24
2017-08-20T04:32:32.888Z,17.27
2017-08-20T04:33:00.807Z,17.31
2017-08-20T04:33:28.923Z,17.27
2017-08-20T04:33:56.949Z,17.3
2017-08-20T04:34:25.093Z,17.32
2017-08-20T04:34:53.129Z,17.31
2017-08-20T04:35:21.274Z,17.27
2017-08-20T04:35:49.213Z,17.37
2017-08-20T04:36:17.349Z,17.3
2017-08-20T04:36:45.373Z,17.27
2017-08-20T04:37:13.504Z,17.23
2017-08-20T04:37:41.536Z,17.27
2017-08-20T04:38:09.471Z,17.32
2017-08-20T04:38:37.949Z,17.23
2017-08-20T04:39:05.899Z,17.32
2017-08-20T04:39:33.930Z,17.3
2017-08-20T04:40:02.127Z,17.32
2017-08-20T04:40:30.276Z,17.34
2017-08-20T04:40:58.467Z,17.3
2017-08-20T04:41:26.664Z,17.32
2017-08-20T04:41:54.705Z,17.24
2017-08-20T04:42:22.843Z,17.27
2017-08-20T04:42:50.972Z,17.28
2017-08-20T04:43:19.037Z,17.3
2017-08-20T04:43:46.985Z,17.3
2017-08-20T04:44:15.089Z,17.34
2017-08-20T04:44:43.133Z,17.35
2017-08-20T04:45:11.260Z,17.38
2017-08-20T04:45:39.398Z,17.34
2017-08-20T04:46:07.656Z,17.3
2017-08-20T04:46:35.931Z,17.31
2017-08-20T04:47:03.997Z,17.38
2017-08-20T04:47:32.054Z,17.35
2017-08-20T04:48:00.126Z,17.32
2017-08-20T04:48:28.258Z,17.3
2017-08-20T04:48:56.409Z,17.31
2017-08-20T04:49:24.759Z,17.35
2017-08-20T04:49:52.987Z,17.37
2017-08-20T04:50:21.112Z,17.39
2017-08-20T04:50:49.125Z,17.38
2017-08-20T04:51:17.145Z,17.39
2017-08-20T04:51:45.297Z,17.37
2017-08-20T04:52:13.218Z,17.34
2017-08-20T04:52:42.061Z,17.38
2017-08-20T04:53:10.575Z,17.42
2017-08-20T04:53:38.943Z,17.38
2017-08-20T04:54:07.065Z,17.38
2017-08-20T04:54:35.017Z,17.38
2017-08-20T04:55:03.045Z,17.39
2017-08-20T04:55:31.150Z,17.38
2017-08-20T04:55:59.001Z,17.32
2017-08-20T04:56:26.948Z,17.39
2017-08-20T04:56:55.076Z,17.35
2017-08-20T04:57:23.266Z,17.42
2017-08-20T04:57:51.456Z,17.42
2017-08-20T04:58:19.506Z,17.42
2017-08-20T04:58:47.627Z,17.35
2017-08-20T04:59:15.756Z,17.35
2017-08-20T04:59:43.811Z,17.39
2017-08-20T05:00:11.936Z,17.37
2017-08-20T05:00:39.975Z,17.34
2017-08-20T05:01:08.242Z,17.38
2017-08-20T05:01:36.367Z,17.37
2017-08-20T05:02:04.500Z,17.35
2017-08-20T05:02:32.647Z,17.35
2017-08-20T05:03:00.688Z,17.42
2017-08-20T05:03:28.813Z,17.37
2017-08-20T05:03:56.977Z,17.34
2017-08-20T05:04:25.085Z,17.37
2017-08-20T05:04:53.197Z,17.34
2017-08-20T05:05:21.333Z,17.37
2017-08-20T05:05:49.661Z,17.34
2017-08-20T05:06:17.921Z,17.37
2017-08-20T05:06:46.059Z,17.41
2017-08-20T05:07:14.198Z,17.35
2017-08-20T05:07:42.208Z,17.44
2017-08-20T05:08:10.365Z,17.39
2017-08-20T05:08:38.506Z,17.38
2017-08-20T05:09:06.480Z,17.42
2017-08-20T05:09:34.500Z,17.41
2017-08-20T05:10:02.556Z,17.39
2017-08-20T05:10:30.578Z,17.42
2017-08-20T05:10:58.793Z,17.46
2017-08-20T05:11:26.952Z,17.47
2017-08-20T05:11:55.012Z,17.47
2017-08-20T05:12:23.098Z,17.49
2017-08-20T05:12:51.443Z,17.49
2017-08-20T05:13:19.536Z,17.49
2017-08-20T05:13:47.574Z,17.44
2017-08-20T05:14:15.715Z,17.47
2017-08-20T05:14:43.763Z,17.44
2017-08-20T05:15:11.914Z,17.42
2017-08-20T05:15:40.059Z,17.54
2017-08-20T05:16:08.393Z,17.39
2017-08-20T05:16:36.562Z,17.47
2017-08-20T05:17:04.716Z,17.5
2017-08-20T05:17:32.886Z,17.39
2017-08-20T05:18:01.052Z,17.47
2017-08-20T05:18:29.104Z,17.53
2017-08-20T05:18:57.266Z,17.47
2017-08-20T05:19:25.415Z,17.53
2017-08-20T05:19:53.478Z,17.53
2017-08-20T05:20:21.666Z,17.59
2017-08-20T05:20:49.944Z,17.56
2017-08-20T05:21:18.024Z,17.5
2017-08-20T05:21:46.175Z,17.56
2017-08-20T05:22:14.500Z,17.6
2017-08-20T05:22:42.528Z,17.5
2017-08-20T05:23:10.444Z,17.59
2017-08-20T05:23:38.947Z,17.5
2017-08-20T05:24:07.173Z,17.63
2017-08-20T05:24:35.217Z,17.54
2017-08-20T05:25:03.262Z,17.39
2017-08-20T05:25:31.382Z,17.39
2017-08-20T05:25:59.531Z,17.5
2017-08-20T05:26:27.732Z,17.47
2017-08-20T05:26:56.193Z,17.49
2017-08-20T05:27:24.342Z,17.52
2017-08-20T05:27:52.296Z,17.52
2017-08-20T05:28:20.554Z,17.49
2017-08-20T05:28:48.753Z,17.37
2017-08-20T05:29:16.720Z,17.38
2017-08-20T05:29:45.202Z,17.41
2017-08-20T05:30:13.598Z,17.34
2017-08-20T05:30:41.744Z,17.35
2017-08-20T05:31:09.814Z,17.42
2017-08-20T05:31:38.097Z,17.41
2017-08-20T05:32:06.443Z,17.37
2017-08-20T05:32:34.577Z,17.37
2017-08-20T05:33:03.039Z,17.37
2017-08-20T05:33:31.338Z,17.41
2017-08-20T05:33:59.775Z,17.39
2017-08-20T05:34:28.236Z,17.35
2017-08-20T05:34:56.513Z,17.35
2017-08-20T05:35:24.939Z,17.39
2017-08-20T05:35:53.957Z,17.35
2017-08-20T05:36:22.614Z,17.35
2017-08-20T05:36:51.201Z,17.34
2017-08-20T05:37:19.433Z,17.35
2017-08-20T05:37:47.500Z,17.27
2017-08-20T05:38:15.718Z,17.34
2017-08-20T05:38:43.710Z,17.35
2017-08-20T05:39:12.033Z,17.31
2017-08-20T05:39:40.079Z,17.35
2017-08-20T05:40:08.137Z,17.31
2017-08-20T05:40:36.175Z,17.3
2017-08-20T05:41:04.206Z,17.3
2017-08-20T05:41:32.338Z,17.27
2017-08-20T05:42:00.463Z,17.27
2017-08-20T05:42:28.624Z,17.28
2017-08-20T05:42:56.732Z,17.32
2017-08-20T05:43:25.255Z,17.32
2017-08-20T05:43:53.265Z,17.37
2017-08-20T05:44:21.529Z,17.3
2017-08-20T05:44:49.927Z,17.3
2017-08-20T05:45:18.215Z,17.34
2017-08-20T05:45:46.526Z,17.27
2017-08-20T05:46:14.795Z,17.27
2017-08-20T05:46:43.004Z,17.37
2017-08-20T05:47:11.340Z,17.37
2017-08-20T05:47:39.369Z,17.39
2017-08-20T05:48:07.477Z,17.35
2017-08-20T05:48:35.729Z,17.31
2017-08-20T05:49:04.056Z,17.34
2017-08-20T05:49:32.224Z,17.38
2017-08-20T05:50:00.412Z,17.35
2017-08-20T05:50:28.683Z,17.35
2017-08-20T05:50:56.809Z,17.3
2017-08-20T05:51:25.016Z,17.27
2017-08-20T05:51:53.101Z,17.38
2017-08-20T05:52:21.212Z,17.28
2017-08-20T05:52:49.573Z,17.34
2017-08-20T05:53:17.675Z,17.28
2017-08-20T05:53:46.092Z,17.35
2017-08-20T05:54:14.632Z,17.28
2017-08-20T05:54:42.936Z,17.34
2017-08-20T05:55:11.203Z,17.31
2017-08-20T05:55:39.791Z,17.31
2017-08-20T05:56:08.144Z,17.32
2017-08-20T05:56:36.276Z,17.31
2017-08-20T05:57:04.644Z,17.32
2017-08-20T05:57:32.857Z,17.34
2017-08-20T05:58:01.123Z,17.39
2017-08-20T05:58:29.254Z,17.35
2017-08-20T05:58:57.446Z,17.34
2017-08-20T05:59:25.720Z,17.38
2017-08-20T05:59:54.034Z,17.39
2017-08-20T06:00:22.221Z,17.39
2017-08-20T06:00:50.470Z,17.37
2017-08-20T06:01:18.605Z,17.38
2017-08-20T06:01:46.798Z,17.37
2017-08-20T06:02:14.964Z,17.34
2017-08-20T06:02:43.017Z,17.42
2017-08-20T06:03:11.335Z,17.42
2017-08-20T06:03:39.517Z,17.39
2017-08-20T06:04:07.727Z,17.39
2017-08-20T06:04:36.030Z,17.44
2017-08-20T06:05:04.129Z,17.5
2017-08-20T06:05:32.472Z,17.49
2017-08-20T06:06:00.606Z,17.44
2017-08-20T06:06:28.450Z,17.42
2017-08-20T06:06:56.472Z,17.44
2017-08-20T06:07:24.593Z,17.38
2017-08-20T06:07:52.742Z,17.42
2017-08-20T06:08:20.887Z,17.42
2017-08-20T06:08:49.023Z,17.38
2017-08-20T06:09:17.227Z,17.47
2017-08-20T06:09:45.157Z,17.42
2017-08-20T06:10:13.313Z,17.42
2017-08-20T06:10:41.469Z,17.35
2017-08-20T06:11:09.533Z,17.34
2017-08-20T06:11:37.590Z,17.38
2017-08-20T06:12:05.706Z,17.34
2017-08-20T06:12:34.014Z,17.38
2017-08-20T06:13:02.203Z,17.35
2017-08-20T06:13:30.257Z,17.38
2017-08-20T06:13:58.329Z,17.34
2017-08-20T06:14:26.457Z,17.31
2017-08-20T06:14:54.589Z,17.31
2017-08-20T06:15:22.709Z,17.3
2017-08-20T06:15:50.758Z,17.3